This is the latest recevied weather packets stored in our database for station/object AA7F. If no packets are shown the sender has not sent any weather packets the latest 10 day(s).
| Time | Temp. | Humidity | Pressure | Rain* | Wind** | Luminosity | Snow |
|---|---|---|---|---|---|---|---|
| 1777692843 | 17.78° C | 43% | 1013.8 hPa | 0 mm | - | 0 W/m² | - |
| 1777692539 | 18.33° C | 42% | 1013.8 hPa | 0 mm | - | 0 W/m² | - |
| 1777692235 | 18.89° C | 41% | 1013.7 hPa | 0 mm | - | 0 W/m² | - |
| 1777691933 | 18.89° C | 37% | 1013.7 hPa | 0 mm | - | 0 W/m² | - |
| 1777691631 | 19.44° C | 35% | 1013.6 hPa | 0 mm | - | 0 W/m² | - |
| 1777691329 | 18.89° C | 38% | 1013.7 hPa | 0 mm | - | 0 W/m² | - |
| 1777691027 | 18.89° C | 39% | 1013.5 hPa | 0 mm | - | 0 W/m² | - |
| 1777690724 | 19.44° C | 37% | 1013.3 hPa | 0 mm | - | 0 W/m² | - |
| 1777690422 | 20° C | 37% | 1013.4 hPa | 0 mm | - | 1 W/m² | - |
| 1777690119 | 20° C | 37% | 1013.5 hPa | 0 mm | - | 3 W/m² | - |
| 1777689817 | 20.56° C | 38% | 1013.5 hPa | 0 mm | - | 5 W/m² | - |
| 1777689515 | 20.56° C | 39% | 1013.4 hPa | 0 mm | - | 9 W/m² | - |
| 1777689212 | 21.11° C | 37% | 1013.5 hPa | 0 mm | - | 13 W/m² | - |
| 1777688910 | 21.11° C | 32% | 1013.2 hPa | 0 mm | - | 19 W/m² | - |
| 1777688606 | 21.67° C | 32% | 1013.3 hPa | 0 mm | - | 24 W/m² | - |
| 1777688303 | 20.56° C | 36% | 1013.1 hPa | 0 mm | - | 29 W/m² | - |
| 1777687698 | 20.56° C | 40% | 1013.2 hPa | 0 mm | - | 38 W/m² | - |
| 1777673758 | 25.56° C | 38% | 1015.5 hPa | 0 mm | - | 583 W/m² | - |
| 1777672546 | 25.56° C | 35% | 1015.7 hPa | 0 mm | - | 585 W/m² | - |
| 1777672241 | 25.56° C | 40% | 1015.8 hPa | 0 mm | - | 603 W/m² | - |
| 1777671937 | 25.56° C | 32% | 1015.6 hPa | 0 mm | - | 595 W/m² | - |
| 1777671330 | 25.56° C | 38% | 1015.9 hPa | 0 mm | - | 603 W/m² | - |
| 1777671026 | 25° C | 36% | 1015.9 hPa | 0 mm | - | 612 W/m² | - |
| 1777670420 | 25° C | 26% | 1015.9 hPa | 0 mm | - | 631 W/m² | - |
| 1777669815 | 25.56° C | 34% | 1016.1 hPa | 0 mm | - | 636 W/m² | - |
* Rain latest hour (hover to see other rain measurements)
** Current wind speed in m/s (hover to see current wind gust speed)